sensor_id;sensor_type;location;lat;lon;timestamp;pressure;altitude;pressure_sealevel;temperature;humidity
3178;BME280;38141;42.666;23.344;2023-08-12T00:02:23;95224.31;;;20.13;98.35
3178;BME280;38141;42.666;23.344;2023-08-12T00:04:50;95187.69;;;19.87;98.31
3178;BME280;38141;42.666;23.344;2023-08-12T00:07:18;95164.56;;;19.36;100.00
3178;BME280;38141;42.666;23.344;2023-08-12T00:09:45;95174.63;;;19.43;100.00
3178;BME280;38141;42.666;23.344;2023-08-12T00:12:12;95213.16;;;19.72;100.00
3178;BME280;38141;42.666;23.344;2023-08-12T00:14:39;95235.31;;;19.65;100.00
3178;BME280;38141;42.666;23.344;2023-08-12T00:17:05;95236.09;;;19.65;100.00
3178;BME280;38141;42.666;23.344;2023-08-12T00:19:32;95192.78;;;19.37;100.00
3178;BME280;38141;42.666;23.344;2023-08-12T00:21:59;95228.34;;;19.60;100.00
3178;BME280;38141;42.666;23.344;2023-08-12T00:24:27;95233.56;;;19.54;100.00
3178;BME280;38141;42.666;23.344;2023-08-12T00:26:54;95154.63;;;18.90;100.00
3178;BME280;38141;42.666;23.344;2023-08-12T00:29:21;95142.63;;;18.84;100.00
3178;BME280;38141;42.666;23.344;2023-08-12T00:31:48;95223.19;;;19.26;100.00
3178;BME280;38141;42.666;23.344;2023-08-12T00:34:15;95211.97;;;19.21;100.00
3178;BME280;38141;42.666;23.344;2023-08-12T00:36:41;95214.78;;;19.17;100.00
3178;BME280;38141;42.666;23.344;2023-08-12T00:39:08;95215.44;;;19.05;100.00
3178;BME280;38141;42.666;23.344;2023-08-12T00:41:36;95156.34;;;18.84;100.00
3178;BME280;38141;42.666;23.344;2023-08-12T00:44:04;95223.84;;;19.14;100.00
3178;BME280;38141;42.666;23.344;2023-08-12T00:46:30;95206.72;;;18.90;100.00
3178;BME280;38141;42.666;23.344;2023-08-12T00:48:57;95187.22;;;19.04;100.00
3178;BME280;38141;42.666;23.344;2023-08-12T00:51:24;95221.78;;;19.38;100.00
3178;BME280;38141;42.666;23.344;2023-08-12T00:53:52;95166.06;;;19.05;100.00
3178;BME280;38141;42.666;23.344;2023-08-12T00:56:19;95142.69;;;18.81;100.00
3178;BME280;38141;42.666;23.344;2023-08-12T00:58:48;95216.50;;;19.47;100.00
3178;BME280;38141;42.666;23.344;2023-08-12T01:01:15;95219.69;;;19.26;100.00
3178;BME280;38141;42.666;23.344;2023-08-12T01:03:43;95220.81;;;19.28;100.00
3178;BME280;38141;42.666;23.344;2023-08-12T01:06:10;95208.19;;;19.15;100.00
3178;BME280;38141;42.666;23.344;2023-08-12T01:08:36;95217.28;;;19.28;100.00
3178;BME280;38141;42.666;23.344;2023-08-12T01:11:11;95208.78;;;19.22;100.00
3178;BME280;38141;42.666;23.344;2023-08-12T01:13:45;95129.63;;;18.69;100.00
3178;BME280;38141;42.666;23.344;2023-08-12T01:16:16;95207.19;;;19.25;100.00
3178;BME280;38141;42.666;23.344;2023-08-12T01:18:44;95189.97;;;19.04;100.00
3178;BME280;38141;42.666;23.344;2023-08-12T01:21:15;95091.34;;;18.26;100.00
3178;BME280;38141;42.666;23.344;2023-08-12T01:23:44;95176.31;;;18.65;100.00
3178;BME280;38141;42.666;23.344;2023-08-12T01:26:11;95204.53;;;18.82;100.00
3178;BME280;38141;42.666;23.344;2023-08-12T01:28:38;95126.81;;;18.33;100.00
3178;BME280;38141;42.666;23.344;2023-08-12T01:31:08;95140.78;;;18.18;100.00
3178;BME280;38141;42.666;23.344;2023-08-12T01:33:42;95193.78;;;18.51;100.00
3178;BME280;38141;42.666;23.344;2023-08-12T01:36:14;95167.56;;;18.50;100.00
3178;BME280;38141;42.666;23.344;2023-08-12T01:38:44;95150.13;;;18.41;100.00
3178;BME280;38141;42.666;23.344;2023-08-12T01:41:13;95212.00;;;18.81;100.00
3178;BME280;38141;42.666;23.344;2023-08-12T01:43:41;95204.63;;;18.98;100.00
3178;BME280;38141;42.666;23.344;2023-08-12T01:46:08;95143.84;;;18.63;100.00
3178;BME280;38141;42.666;23.344;2023-08-12T01:48:36;95145.72;;;18.47;100.00
3178;BME280;38141;42.666;23.344;2023-08-12T01:51:03;95206.81;;;18.87;100.00
3178;BME280;38141;42.666;23.344;2023-08-12T01:53:30;95175.69;;;18.57;100.00
3178;BME280;38141;42.666;23.344;2023-08-12T01:55:58;95199.97;;;18.55;100.00
3178;BME280;38141;42.666;23.344;2023-08-12T01:58:25;95184.31;;;18.56;100.00
3178;BME280;38141;42.666;23.344;2023-08-12T02:00:52;95180.31;;;18.80;100.00
3178;BME280;38141;42.666;23.344;2023-08-12T02:03:19;95199.41;;;18.64;100.00
3178;BME280;38141;42.666;23.344;2023-08-12T02:05:45;95206.25;;;18.56;100.00
3178;BME280;38141;42.666;23.344;2023-08-12T02:08:13;95201.81;;;18.82;100.00
3178;BME280;38141;42.666;23.344;2023-08-12T02:10:40;95190.44;;;18.63;100.00
3178;BME280;38141;42.666;23.344;2023-08-12T02:13:08;95202.00;;;18.51;100.00
3178;BME280;38141;42.666;23.344;2023-08-12T02:15:34;95209.19;;;18.65;100.00
3178;BME280;38141;42.666;23.344;2023-08-12T02:18:01;95189.72;;;18.59;100.00
3178;BME280;38141;42.666;23.344;2023-08-12T02:20:28;95158.75;;;18.19;100.00
3178;BME280;38141;42.666;23.344;2023-08-12T02:22:55;95221.19;;;18.51;100.00
3178;BME280;38141;42.666;23.344;2023-08-12T02:25:22;95203.19;;;18.50;100.00
3178;BME280;38141;42.666;23.344;2023-08-12T02:27:49;95133.50;;;18.12;100.00
3178;BME280;38141;42.666;23.344;2023-08-12T02:30:17;95093.09;;;17.96;100.00
3178;BME280;38141;42.666;23.344;2023-08-12T02:32:44;95201.88;;;18.78;100.00
3178;BME280;38141;42.666;23.344;2023-08-12T02:35:11;95119.91;;;18.05;100.00
3178;BME280;38141;42.666;23.344;2023-08-12T02:37:38;95214.31;;;18.63;100.00
3178;BME280;38141;42.666;23.344;2023-08-12T02:40:06;95205.06;;;18.57;100.00
3178;BME280;38141;42.666;23.344;2023-08-12T02:42:33;95197.31;;;18.72;100.00
3178;BME280;38141;42.666;23.344;2023-08-12T02:45:00;95220.44;;;18.71;100.00
3178;BME280;38141;42.666;23.344;2023-08-12T02:47:28;95203.72;;;18.65;100.00
3178;BME280;38141;42.666;23.344;2023-08-12T02:49:55;95211.88;;;18.69;100.00
3178;BME280;38141;42.666;23.344;2023-08-12T02:52:21;95215.16;;;18.60;100.00
3178;BME280;38141;42.666;23.344;2023-08-12T02:54:48;95218.38;;;18.55;100.00
3178;BME280;38141;42.666;23.344;2023-08-12T02:57:15;95221.59;;;18.50;100.00
3178;BME280;38141;42.666;23.344;2023-08-12T02:59:42;95222.72;;;18.52;100.00
3178;BME280;38141;42.666;23.344;2023-08-12T03:02:08;95211.25;;;18.38;100.00
3178;BME280;38141;42.666;23.344;2023-08-12T03:04:36;95219.47;;;18.38;100.00
3178;BME280;38141;42.666;23.344;2023-08-12T03:07:03;95199.44;;;18.21;100.00
3178;BME280;38141;42.666;23.344;2023-08-12T03:09:30;95223.06;;;18.35;100.00
3178;BME280;38141;42.666;23.344;2023-08-12T03:11:57;95228.16;;;18.33;100.00
3178;BME280;38141;42.666;23.344;2023-08-12T03:16:54;95230.75;;;18.20;100.00
3178;BME280;38141;42.666;23.344;2023-08-12T03:19:21;95182.97;;;17.78;100.00
3178;BME280;38141;42.666;23.344;2023-08-12T03:21:49;95165.53;;;17.68;100.00
3178;BME280;38141;42.666;23.344;2023-08-12T03:24:15;95159.91;;;17.52;100.00
3178;BME280;38141;42.666;23.344;2023-08-12T03:26:42;95232.66;;;18.00;100.00
3178;BME280;38141;42.666;23.344;2023-08-12T03:29:09;95232.66;;;18.00;100.00
3178;BME280;38141;42.666;23.344;2023-08-12T03:31:36;95233.78;;;18.02;100.00
3178;BME280;38141;42.666;23.344;2023-08-12T03:34:03;95215.97;;;18.14;100.00
3178;BME280;38141;42.666;23.344;2023-08-12T03:36:29;95205.66;;;18.21;100.00
3178;BME280;38141;42.666;23.344;2023-08-12T03:39:00;95232.31;;;18.41;100.00
3178;BME280;38141;42.666;23.344;2023-08-12T03:41:27;95225.81;;;18.35;100.00
3178;BME280;38141;42.666;23.344;2023-08-12T03:46:40;95212.00;;;18.18;100.00
3178;BME280;38141;42.666;23.344;2023-08-12T03:49:06;95219.25;;;18.29;100.00
3178;BME280;38141;42.666;23.344;2023-08-12T03:51:33;95243.84;;;18.32;100.00
3178;BME280;38141;42.666;23.344;2023-08-12T03:54:01;95214.78;;;18.15;100.00
3178;BME280;38141;42.666;23.344;2023-08-12T03:56:29;95216.47;;;18.09;100.00
3178;BME280;38141;42.666;23.344;2023-08-12T03:58:56;95208.53;;;18.14;100.00
3178;BME280;38141;42.666;23.344;2023-08-12T04:01:22;95248.75;;;18.41;100.00
3178;BME280;38141;42.666;23.344;2023-08-12T04:03:49;95240.31;;;18.55;100.00
3178;BME280;38141;42.666;23.344;2023-08-12T04:06:16;95265.75;;;18.55;100.00
3178;BME280;38141;42.666;23.344;2023-08-12T04:08:43;95210.41;;;18.41;100.00
3178;BME280;38141;42.666;23.344;2023-08-12T04:11:11;95229.97;;;18.62;100.00
3178;BME280;38141;42.666;23.344;2023-08-12T04:13:38;95250.16;;;18.72;100.00
3178;BME280;38141;42.666;23.344;2023-08-12T04:16:05;95232.13;;;18.75;100.00
3178;BME280;38141;42.666;23.344;2023-08-12T04:18:32;95226.41;;;18.65;100.00
3178;BME280;38141;42.666;23.344;2023-08-12T04:20:59;95213.22;;;18.80;100.00
3178;BME280;38141;42.666;23.344;2023-08-12T04:23:25;95241.47;;;18.97;100.00
3178;BME280;38141;42.666;23.344;2023-08-12T04:25:52;95161.81;;;18.84;100.00
3178;BME280;38141;42.666;23.344;2023-08-12T04:28:21;95213.13;;;19.39;100.00
3178;BME280;38141;42.666;23.344;2023-08-12T04:30:48;95236.97;;;20.11;99.53
3178;BME280;38141;42.666;23.344;2023-08-12T04:33:18;95258.00;;;20.33;95.60
3178;BME280;38141;42.666;23.344;2023-08-12T04:35:45;95150.66;;;20.08;92.76
3178;BME280;38141;42.666;23.344;2023-08-12T04:38:13;95174.88;;;21.00;88.73
3178;BME280;38141;42.666;23.344;2023-08-12T04:40:41;95224.19;;;21.61;84.80
3178;BME280;38141;42.666;23.344;2023-08-12T04:43:08;95262.56;;;22.53;79.15
3178;BME280;38141;42.666;23.344;2023-08-12T04:45:38;95238.19;;;23.08;75.53
3178;BME280;38141;42.666;23.344;2023-08-12T04:48:06;95230.78;;;23.26;72.82
3178;BME280;38141;42.666;23.344;2023-08-12T04:50:33;95208.25;;;23.59;70.48
3178;BME280;38141;42.666;23.344;2023-08-12T04:53:07;95274.06;;;24.71;65.74
3178;BME280;38141;42.666;23.344;2023-08-12T04:55:34;95221.59;;;24.67;62.73
3178;BME280;38141;42.666;23.344;2023-08-12T04:58:02;95194.06;;;25.09;60.20
3178;BME280;38141;42.666;23.344;2023-08-12T05:00:30;95181.31;;;25.96;56.83
3178;BME280;38141;42.666;23.344;2023-08-12T05:03:19;95255.88;;;27.36;53.46
3178;BME280;38141;42.666;23.344;2023-08-12T05:05:52;95240.06;;;28.16;50.95
3178;BME280;38141;42.666;23.344;2023-08-12T05:08:32;95213.69;;;29.64;48.29
3178;BME280;38141;42.666;23.344;2023-08-12T05:11:02;95261.22;;;29.75;47.52
3178;BME280;38141;42.666;23.344;2023-08-12T05:13:30;95260.91;;;29.22;47.09
3178;BME280;38141;42.666;23.344;2023-08-12T05:15:57;95239.16;;;29.26;46.26
3178;BME280;38141;42.666;23.344;2023-08-12T05:18:33;95188.63;;;28.11;47.74
3178;BME280;38141;42.666;23.344;2023-08-12T05:21:00;95190.66;;;30.00;44.33
3178;BME280;38141;42.666;23.344;2023-08-12T05:23:28;95240.13;;;31.55;42.33
3178;BME280;38141;42.666;23.344;2023-08-12T05:25:57;95230.88;;;33.35;37.60
3178;BME280;38141;42.666;23.344;2023-08-12T05:28:24;95262.25;;;32.70;38.02
3178;BME280;38141;42.666;23.344;2023-08-12T05:30:51;95245.91;;;33.37;36.90
3178;BME280;38141;42.666;23.344;2023-08-12T05:33:20;95249.75;;;34.41;35.29
3178;BME280;38141;42.666;23.344;2023-08-12T05:35:59;95216.38;;;34.31;33.66
3178;BME280;38141;42.666;23.344;2023-08-12T05:38:32;95254.44;;;33.62;35.02
3178;BME280;38141;42.666;23.344;2023-08-12T05:41:00;95238.69;;;37.07;31.15
3178;BME280;38141;42.666;23.344;2023-08-12T05:43:29;95242.63;;;36.00;31.92
3178;BME280;38141;42.666;23.344;2023-08-12T05:45:56;95264.94;;;37.28;30.29
3178;BME280;38141;42.666;23.344;2023-08-12T05:48:24;95270.13;;;38.39;29.31
3178;BME280;38141;42.666;23.344;2023-08-12T06:00:44;95235.72;;;36.46;29.68
3178;BME280;38141;42.666;23.344;2023-08-12T06:03:25;95281.38;;;39.01;27.90
3178;BME280;38141;42.666;23.344;2023-08-12T06:05:54;95238.09;;;39.80;26.51
3178;BME280;38141;42.666;23.344;2023-08-12T06:08:35;95239.50;;;38.50;28.07
3178;BME280;38141;42.666;23.344;2023-08-12T06:11:15;95201.56;;;37.16;28.65
3178;BME280;38141;42.666;23.344;2023-08-12T06:13:57;95252.16;;;39.49;26.61
3178;BME280;38141;42.666;23.344;2023-08-12T06:16:28;95262.13;;;39.86;26.40
3178;BME280;38141;42.666;23.344;2023-08-12T06:18:55;95259.53;;;39.17;27.45
3178;BME280;38141;42.666;23.344;2023-08-12T06:21:22;95231.38;;;40.21;26.22
3178;BME280;38141;42.666;23.344;2023-08-12T06:23:49;95199.69;;;41.15;24.83
3178;BME280;38141;42.666;23.344;2023-08-12T06:26:16;95178.53;;;38.78;27.05
3178;BME280;38141;42.666;23.344;2023-08-12T06:28:46;95255.28;;;38.95;26.99
3178;BME280;38141;42.666;23.344;2023-08-12T06:31:30;95234.50;;;38.92;27.04
3178;BME280;38141;42.666;23.344;2023-08-12T06:33:59;95260.44;;;39.11;27.02
3178;BME280;38141;42.666;23.344;2023-08-12T06:36:27;95189.41;;;40.27;26.37
3178;BME280;38141;42.666;23.344;2023-08-12T06:38:54;95180.03;;;41.82;24.81
3178;BME280;38141;42.666;23.344;2023-08-12T06:41:22;95184.66;;;39.91;25.96
3178;BME280;38141;42.666;23.344;2023-08-12T06:43:51;95195.03;;;39.89;26.26
3178;BME280;38141;42.666;23.344;2023-08-12T06:46:36;95148.53;;;39.77;26.29
3178;BME280;38141;42.666;23.344;2023-08-12T06:49:13;95235.72;;;40.14;26.55
3178;BME280;38141;42.666;23.344;2023-08-12T06:51:40;95242.34;;;40.93;25.54
3178;BME280;38141;42.666;23.344;2023-08-12T06:54:09;95210.94;;;39.92;26.08
3178;BME280;38141;42.666;23.344;2023-08-12T06:56:36;95165.31;;;38.16;26.99
3178;BME280;38141;42.666;23.344;2023-08-12T06:59:03;95231.16;;;39.01;26.60
3178;BME280;38141;42.666;23.344;2023-08-12T07:01:30;95217.63;;;38.09;27.52
3178;BME280;38141;42.666;23.344;2023-08-12T07:03:59;95206.97;;;37.14;29.07
3178;BME280;38141;42.666;23.344;2023-08-12T07:06:27;95210.41;;;38.01;27.99
3178;BME280;38141;42.666;23.344;2023-08-12T07:08:54;95211.75;;;36.66;29.42
3178;BME280;38141;42.666;23.344;2023-08-12T07:11:22;95218.78;;;36.46;29.08
3178;BME280;38141;42.666;23.344;2023-08-12T07:13:49;95206.13;;;36.66;29.13
3178;BME280;38141;42.666;23.344;2023-08-12T07:16:16;95195.72;;;34.96;30.41
3178;BME280;38141;42.666;23.344;2023-08-12T07:18:42;95162.06;;;36.76;28.50
3178;BME280;38141;42.666;23.344;2023-08-12T07:21:11;95170.41;;;36.95;27.56
3178;BME280;38141;42.666;23.344;2023-08-12T07:23:38;95216.31;;;36.56;28.59
3178;BME280;38141;42.666;23.344;2023-08-12T07:26:05;95170.28;;;36.48;29.16
3178;BME280;38141;42.666;23.344;2023-08-12T07:28:32;95196.69;;;36.05;29.80
3178;BME280;38141;42.666;23.344;2023-08-12T07:31:00;95200.16;;;36.83;28.70
3178;BME280;38141;42.666;23.344;2023-08-12T07:33:27;95200.34;;;36.59;29.34
3178;BME280;38141;42.666;23.344;2023-08-12T07:35:54;95155.47;;;34.64;30.79
3178;BME280;38141;42.666;23.344;2023-08-12T07:38:23;95207.84;;;34.43;31.62
3178;BME280;38141;42.666;23.344;2023-08-12T07:40:57;95196.59;;;34.67;31.78
3178;BME280;38141;42.666;23.344;2023-08-12T07:43:24;95205.47;;;36.02;30.08
3178;BME280;38141;42.666;23.344;2023-08-12T07:45:51;95215.44;;;34.72;31.61
3178;BME280;38141;42.666;23.344;2023-08-12T07:48:19;95179.25;;;35.43;30.90
3178;BME280;38141;42.666;23.344;2023-08-12T07:50:45;95177.63;;;35.48;30.22
3178;BME280;38141;42.666;23.344;2023-08-12T07:53:20;95201.38;;;35.52;30.11
3178;BME280;38141;42.666;23.344;2023-08-12T07:55:48;95177.00;;;35.55;30.52
3178;BME280;38141;42.666;23.344;2023-08-12T07:58:15;95195.06;;;35.46;30.89
3178;BME280;38141;42.666;23.344;2023-08-12T08:00:42;95197.25;;;34.00;31.75
3178;BME280;38141;42.666;23.344;2023-08-12T08:03:09;95176.31;;;34.50;32.02
3178;BME280;38141;42.666;23.344;2023-08-12T08:05:39;95179.13;;;34.50;32.20
3178;BME280;38141;42.666;23.344;2023-08-12T08:08:06;95189.00;;;35.23;30.72
3178;BME280;38141;42.666;23.344;2023-08-12T08:10:33;95174.16;;;34.37;31.52
3178;BME280;38141;42.666;23.344;2023-08-12T08:13:01;95150.91;;;34.61;31.08
3178;BME280;38141;42.666;23.344;2023-08-12T08:15:29;95148.81;;;34.43;30.89
3178;BME280;38141;42.666;23.344;2023-08-12T08:17:56;95172.09;;;35.05;30.39
3178;BME280;38141;42.666;23.344;2023-08-12T08:20:23;95162.81;;;35.47;29.87
3178;BME280;38141;42.666;23.344;2023-08-12T08:22:50;95182.50;;;35.66;29.32
3178;BME280;38141;42.666;23.344;2023-08-12T08:25:17;95180.59;;;35.55;29.25
3178;BME280;38141;42.666;23.344;2023-08-12T08:27:43;95196.91;;;35.76;28.94
3178;BME280;38141;42.666;23.344;2023-08-12T08:30:12;95189.03;;;35.74;29.21
3178;BME280;38141;42.666;23.344;2023-08-12T08:32:39;95189.75;;;36.06;29.05
3178;BME280;38141;42.666;23.344;2023-08-12T08:35:06;95163.53;;;36.11;28.53
3178;BME280;38141;42.666;23.344;2023-08-12T08:37:33;95176.69;;;36.22;28.52
3178;BME280;38141;42.666;23.344;2023-08-12T08:40:12;95185.78;;;36.15;29.36
3178;BME280;38141;42.666;23.344;2023-08-12T08:42:40;95135.00;;;35.89;28.38
3178;BME280;38141;42.666;23.344;2023-08-12T08:45:24;95182.25;;;36.80;28.42
3178;BME280;38141;42.666;23.344;2023-08-12T08:47:52;95157.03;;;37.56;27.84
3178;BME280;38141;42.666;23.344;2023-08-12T08:50:20;95172.91;;;38.49;27.17
3178;BME280;38141;42.666;23.344;2023-08-12T08:52:48;95146.50;;;38.83;26.12
3178;BME280;38141;42.666;23.344;2023-08-12T08:55:16;95146.47;;;38.75;25.58
3178;BME280;38141;42.666;23.344;2023-08-12T08:57:44;95131.81;;;36.50;27.15
3178;BME280;38141;42.666;23.344;2023-08-12T09:00:12;95146.00;;;36.84;27.37
3178;BME280;38141;42.666;23.344;2023-08-12T09:02:41;95156.84;;;38.44;26.50
3178;BME280;38141;42.666;23.344;2023-08-12T09:08:14;95158.75;;;40.56;23.98
3178;BME280;38141;42.666;23.344;2023-08-12T09:10:42;95136.44;;;40.14;24.49
3178;BME280;38141;42.666;23.344;2023-08-12T09:13:08;95143.81;;;39.94;24.64
3178;BME280;38141;42.666;23.344;2023-08-12T09:15:35;95157.91;;;37.04;26.70
3178;BME280;38141;42.666;23.344;2023-08-12T09:18:17;95140.50;;;36.79;28.17
3178;BME280;38141;42.666;23.344;2023-08-12T09:20:44;95128.09;;;39.63;25.89
3178;BME280;38141;42.666;23.344;2023-08-12T09:23:11;95090.94;;;39.00;25.73
3178;BME280;38141;42.666;23.344;2023-08-12T09:25:42;95151.13;;;40.81;24.29
3178;BME280;38141;42.666;23.344;2023-08-12T09:28:10;95145.97;;;41.75;23.12
3178;BME280;38141;42.666;23.344;2023-08-12T09:30:50;95108.00;;;41.80;22.94
3178;BME280;38141;42.666;23.344;2023-08-12T09:33:24;95118.38;;;41.27;22.94
3178;BME280;38141;42.666;23.344;2023-08-12T09:35:52;95144.34;;;41.89;22.94
3178;BME280;38141;42.666;23.344;2023-08-12T09:38:19;95113.34;;;43.82;21.56
3178;BME280;38141;42.666;23.344;2023-08-12T09:40:46;95108.72;;;43.33;21.97
3178;BME280;38141;42.666;23.344;2023-08-12T09:43:13;95128.28;;;42.50;22.28
3178;BME280;38141;42.666;23.344;2023-08-12T09:45:44;95129.31;;;40.91;22.83
3178;BME280;38141;42.666;23.344;2023-08-12T09:48:12;95079.19;;;42.94;21.17
3178;BME280;38141;42.666;23.344;2023-08-12T09:50:41;95079.53;;;41.30;22.52
3178;BME280;38141;42.666;23.344;2023-08-12T09:53:08;95093.78;;;42.29;22.11
3178;BME280;38141;42.666;23.344;2023-08-12T09:55:36;95059.38;;;42.35;22.04
3178;BME280;38141;42.666;23.344;2023-08-12T09:58:06;95100.44;;;43.27;21.18
3178;BME280;38141;42.666;23.344;2023-08-12T10:00:34;95095.53;;;41.75;21.95
3178;BME280;38141;42.666;23.344;2023-08-12T10:03:02;95111.72;;;41.65;22.35
3178;BME280;38141;42.666;23.344;2023-08-12T10:05:35;95097.09;;;43.75;21.13
3178;BME280;38141;42.666;23.344;2023-08-12T10:08:05;95073.47;;;43.92;20.08
3178;BME280;38141;42.666;23.344;2023-08-12T10:10:35;95083.16;;;41.80;21.56
3178;BME280;38141;42.666;23.344;2023-08-12T10:13:04;95081.28;;;42.25;22.04
3178;BME280;38141;42.666;23.344;2023-08-12T10:15:33;95093.28;;;41.73;22.29
3178;BME280;38141;42.666;23.344;2023-08-12T10:18:00;95090.66;;;41.68;22.47
3178;BME280;38141;42.666;23.344;2023-08-12T10:20:27;95031.91;;;40.18;23.10
3178;BME280;38141;42.666;23.344;2023-08-12T10:22:56;95023.00;;;40.29;22.91
3178;BME280;38141;42.666;23.344;2023-08-12T10:25:31;95060.53;;;41.08;22.89
3178;BME280;38141;42.666;23.344;2023-08-12T10:28:00;95062.28;;;39.19;24.46
3178;BME280;38141;42.666;23.344;2023-08-12T10:30:29;95052.44;;;38.25;24.90
3178;BME280;38141;42.666;23.344;2023-08-12T10:32:58;95050.81;;;37.81;25.50
3178;BME280;38141;42.666;23.344;2023-08-12T10:35:41;95040.91;;;37.88;25.75
3178;BME280;38141;42.666;23.344;2023-08-12T10:38:08;95059.28;;;37.81;25.95
3178;BME280;38141;42.666;23.344;2023-08-12T10:40:37;95032.44;;;37.46;25.46
3178;BME280;38141;42.666;23.344;2023-08-12T10:43:04;95006.47;;;37.68;25.51
3178;BME280;38141;42.666;23.344;2023-08-12T10:45:43;95027.94;;;38.56;24.71
3178;BME280;38141;42.666;23.344;2023-08-12T10:48:16;94974.91;;;38.06;24.94
3178;BME280;38141;42.666;23.344;2023-08-12T10:50:44;95067.28;;;36.60;26.36
3178;BME280;38141;42.666;23.344;2023-08-12T10:53:23;95052.19;;;36.58;26.37
3178;BME280;38141;42.666;23.344;2023-08-12T10:55:56;95026.03;;;35.39;27.38
3178;BME280;38141;42.666;23.344;2023-08-12T10:58:24;94969.59;;;35.18;27.52
3178;BME280;38141;42.666;23.344;2023-08-12T11:00:53;95047.00;;;36.48;26.99
3178;BME280;38141;42.666;23.344;2023-08-12T11:03:20;94972.00;;;36.66;26.05
3178;BME280;38141;42.666;23.344;2023-08-12T11:05:48;95045.59;;;36.89;25.88
3178;BME280;38141;42.666;23.344;2023-08-12T11:08:16;95033.00;;;36.69;26.39
3178;BME280;38141;42.666;23.344;2023-08-12T11:10:44;94982.63;;;35.34;27.87
3178;BME280;38141;42.666;23.344;2023-08-12T11:13:17;95038.38;;;34.29;29.07
3178;BME280;38141;42.666;23.344;2023-08-12T11:15:47;95032.75;;;34.85;28.61
3178;BME280;38141;42.666;23.344;2023-08-12T11:18:16;95019.50;;;34.80;28.08
3178;BME280;38141;42.666;23.344;2023-08-12T11:20:45;94966.44;;;33.77;28.79
3178;BME280;38141;42.666;23.344;2023-08-12T11:23:16;94943.72;;;33.57;28.32
3178;BME280;38141;42.666;23.344;2023-08-12T11:25:57;94957.19;;;33.04;29.20
3178;BME280;38141;42.666;23.344;2023-08-12T11:28:27;94964.00;;;33.68;29.16
3178;BME280;38141;42.666;23.344;2023-08-12T11:30:54;94976.78;;;33.64;28.12
3178;BME280;38141;42.666;23.344;2023-08-12T11:33:23;94949.91;;;33.74;28.05
3178;BME280;38141;42.666;23.344;2023-08-12T11:35:51;94993.81;;;33.71;28.02
3178;BME280;38141;42.666;23.344;2023-08-12T11:38:18;94931.88;;;33.39;27.90
3178;BME280;38141;42.666;23.344;2023-08-12T11:40:55;95010.84;;;32.89;29.31
3178;BME280;38141;42.666;23.344;2023-08-12T11:43:27;95006.13;;;33.63;27.87
3178;BME280;38141;42.666;23.344;2023-08-12T11:45:55;95002.38;;;32.59;28.95
3178;BME280;38141;42.666;23.344;2023-08-12T11:48:27;95003.75;;;32.88;28.53
3178;BME280;38141;42.666;23.344;2023-08-12T11:50:55;95017.72;;;33.29;27.59
3178;BME280;38141;42.666;23.344;2023-08-12T11:53:23;94929.59;;;33.14;27.43
3178;BME280;38141;42.666;23.344;2023-08-12T11:55:50;94946.84;;;33.72;27.74
3178;BME280;38141;42.666;23.344;2023-08-12T11:58:17;94992.88;;;33.39;28.51
3178;BME280;38141;42.666;23.344;2023-08-12T12:00:48;95024.28;;;32.14;29.00
3178;BME280;38141;42.666;23.344;2023-08-12T12:03:16;95020.00;;;31.97;29.00
3178;BME280;38141;42.666;23.344;2023-08-12T12:05:47;94958.03;;;31.65;28.97
3178;BME280;38141;42.666;23.344;2023-08-12T12:08:18;94932.75;;;31.87;29.31
3178;BME280;38141;42.666;23.344;2023-08-12T12:10:45;94988.34;;;32.24;29.59
3178;BME280;38141;42.666;23.344;2023-08-12T12:13:12;94960.06;;;32.28;28.60
3178;BME280;38141;42.666;23.344;2023-08-12T12:15:41;94990.06;;;32.79;28.65
3178;BME280;38141;42.666;23.344;2023-08-12T12:18:11;94930.06;;;32.17;28.21
3178;BME280;38141;42.666;23.344;2023-08-12T12:20:42;94997.75;;;32.21;29.66
3178;BME280;38141;42.666;23.344;2023-08-12T12:23:09;94984.63;;;32.46;29.20
3178;BME280;38141;42.666;23.344;2023-08-12T12:25:36;94992.72;;;32.03;28.68
3178;BME280;38141;42.666;23.344;2023-08-12T12:28:09;94979.66;;;31.70;30.52
3178;BME280;38141;42.666;23.344;2023-08-12T12:30:37;94989.97;;;31.97;30.36
3178;BME280;38141;42.666;23.344;2023-08-12T12:33:06;94973.97;;;31.87;30.49
3178;BME280;38141;42.666;23.344;2023-08-12T12:35:35;94970.94;;;32.37;29.75
3178;BME280;38141;42.666;23.344;2023-08-12T12:38:02;94923.91;;;32.59;28.92
3178;BME280;38141;42.666;23.344;2023-08-12T12:40:29;94992.59;;;33.42;28.03
3178;BME280;38141;42.666;23.344;2023-08-12T12:42:56;94951.59;;;32.39;30.66
3178;BME280;38141;42.666;23.344;2023-08-12T12:45:24;94952.81;;;31.97;32.53
3178;BME280;38141;42.666;23.344;2023-08-12T12:47:51;94919.25;;;31.11;32.85
3178;BME280;38141;42.666;23.344;2023-08-12T12:50:19;94918.25;;;30.81;34.24
3178;BME280;38141;42.666;23.344;2023-08-12T12:52:48;94989.63;;;31.43;34.12
3178;BME280;38141;42.666;23.344;2023-08-12T12:55:15;94971.56;;;31.39;33.61
3178;BME280;38141;42.666;23.344;2023-08-12T12:57:42;94953.00;;;31.35;34.48
3178;BME280;38141;42.666;23.344;2023-08-12T13:00:10;94954.56;;;32.05;33.00
3178;BME280;38141;42.666;23.344;2023-08-12T13:02:37;94935.22;;;32.02;32.75
3178;BME280;38141;42.666;23.344;2023-08-12T13:05:04;94908.91;;;32.21;32.13
3178;BME280;38141;42.666;23.344;2023-08-12T13:07:31;94910.41;;;32.28;32.06
3178;BME280;38141;42.666;23.344;2023-08-12T13:10:00;94940.97;;;32.61;31.61
3178;BME280;38141;42.666;23.344;2023-08-12T13:12:28;94925.28;;;32.47;31.57
3178;BME280;38141;42.666;23.344;2023-08-12T13:14:55;94920.66;;;32.55;31.60
3178;BME280;38141;42.666;23.344;2023-08-12T13:17:22;94934.94;;;32.52;31.69
3178;BME280;38141;42.666;23.344;2023-08-12T13:19:49;94943.66;;;32.43;31.92
3178;BME280;38141;42.666;23.344;2023-08-12T13:22:25;94898.38;;;32.39;31.86
3178;BME280;38141;42.666;23.344;2023-08-12T13:24:55;94933.00;;;32.71;31.43